createdAt,value
2019-01-21T00:00:42.983Z,43.53
2019-01-21T00:03:14.623Z,42.73
2019-01-21T00:05:42.002Z,42.70
2019-01-21T00:08:10.626Z,42.50
2019-01-21T00:10:39.169Z,43.27
2019-01-21T00:13:07.740Z,43.10
2019-01-21T00:15:36.321Z,43.87
2019-01-21T00:18:05.331Z,43.48
2019-01-21T00:20:33.881Z,42.20
2019-01-21T00:23:02.508Z,42.70
2019-01-21T00:25:31.100Z,42.90
2019-01-21T00:27:59.672Z,43.55
2019-01-21T00:30:28.145Z,43.17
2019-01-21T00:32:56.649Z,42.27
2019-01-21T00:35:25.224Z,43.15
2019-01-21T00:38:13.133Z,42.60
2019-01-21T00:40:41.694Z,44.17
2019-01-21T00:43:10.278Z,43.60
2019-01-21T00:45:38.913Z,45.88
2019-01-21T00:48:07.482Z,45.00
2019-01-21T00:50:36.034Z,43.03
2019-01-21T00:53:04.668Z,43.27
2019-01-21T00:55:33.221Z,41.48
2019-01-21T00:58:01.717Z,43.80
2019-01-21T01:00:31.477Z,43.50
2019-01-21T01:03:00.412Z,44.37
2019-01-21T01:05:28.963Z,43.58
2019-01-21T01:07:57.528Z,45.17
2019-01-21T01:10:26.064Z,44.13
2019-01-21T01:12:54.560Z,44.20
2019-01-21T01:15:23.187Z,45.38
2019-01-21T01:17:51.751Z,44.53
2019-01-21T01:20:20.777Z,46.00
2019-01-21T01:22:49.426Z,45.37
2019-01-21T01:25:17.968Z,44.75
2019-01-21T01:27:46.704Z,45.60
2019-01-21T01:30:16.605Z,44.93
2019-01-21T01:32:45.160Z,43.78
2019-01-21T01:35:15.253Z,44.60
2019-01-21T01:37:44.362Z,43.80
2019-01-21T01:40:15.136Z,44.30
2019-01-21T01:42:43.785Z,44.33
2019-01-21T01:45:16.337Z,44.35
2019-01-21T01:47:45.173Z,44.27
2019-01-21T01:50:13.901Z,45.07
2019-01-21T01:52:42.541Z,44.67
2019-01-21T01:55:11.457Z,44.90
2019-01-21T01:57:40.097Z,45.30
2019-01-21T02:00:12.053Z,43.70
2019-01-21T02:02:40.689Z,42.63
2019-01-21T02:05:09.483Z,45.33
2019-01-21T02:07:38.248Z,46.48
2019-01-21T02:10:09.897Z,43.83
2019-01-21T02:12:38.437Z,45.93
2019-01-21T02:15:12.852Z,44.80
2019-01-21T02:17:41.400Z,42.73
2019-01-21T02:20:13.206Z,46.70
2019-01-21T02:22:44.191Z,44.93
2019-01-21T02:25:13.601Z,44.15
2019-01-21T02:28:03.292Z,44.43
2019-01-21T02:30:43.943Z,44.33
2019-01-21T02:33:24.861Z,45.08
2019-01-21T02:35:56.487Z,46.45
2019-01-21T02:38:37.084Z,45.80
2019-01-21T02:41:09.011Z,46.80
2019-01-21T02:43:52.536Z,46.13
2019-01-21T02:46:24.161Z,46.00
2019-01-21T02:49:01.543Z,48.70
2019-01-21T02:51:41.746Z,47.35
2019-01-21T02:54:16.069Z,46.67
2019-01-21T02:56:50.360Z,47.60
2019-01-21T02:59:27.730Z,49.67
2019-01-21T03:02:17.624Z,47.20
2019-01-21T03:05:24.421Z,47.90
2019-01-21T03:08:07.912Z,50.58
2019-01-21T03:10:59.290Z,46.60
2019-01-21T03:13:48.955Z,47.03
2019-01-21T03:16:31.891Z,48.07
2019-01-21T03:19:21.654Z,49.10
2019-01-21T03:22:11.575Z,48.30
2019-01-21T03:25:04.126Z,47.30
2019-01-21T03:27:53.673Z,45.23
2019-01-21T03:30:37.162Z,45.53
2019-01-21T03:33:28.583Z,45.83
2019-01-21T03:36:09.253Z,47.23
2019-01-21T03:38:57.522Z,47.67
2019-01-21T03:41:34.728Z,48.13
2019-01-21T03:44:15.338Z,47.70
2019-01-21T03:47:03.711Z,48.08
2019-01-21T03:49:38.226Z,49.88
2019-01-21T03:52:40.294Z,46.83
2019-01-21T03:55:12.191Z,47.80
2019-01-21T03:57:55.736Z,47.73
2019-01-21T04:00:39.741Z,48.57
2019-01-21T04:03:23.261Z,47.90
2019-01-21T04:05:58.050Z,47.00
2019-01-21T04:08:32.385Z,47.40
2019-01-21T04:11:21.659Z,47.95
2019-01-21T04:13:59.276Z,46.47
2019-01-21T04:16:48.980Z,48.70
2019-01-21T04:19:38.264Z,46.47
2019-01-21T04:22:27.848Z,46.40
2019-01-21T04:25:23.751Z,45.37
2019-01-21T04:27:58.325Z,45.65
2019-01-21T04:30:56.927Z,45.83
2019-01-21T04:33:48.294Z,47.10
2019-01-21T04:36:32.020Z,46.25
2019-01-21T04:39:23.108Z,49.00
2019-01-21T04:42:06.545Z,47.23
2019-01-21T04:44:55.115Z,46.83
2019-01-21T04:47:32.733Z,46.37
2019-01-21T04:50:31.081Z,45.20
2019-01-21T04:53:08.673Z,48.35
2019-01-21T04:55:55.344Z,48.30
2019-01-21T04:58:43.300Z,46.90
2019-01-21T05:01:20.625Z,48.30
2019-01-21T05:04:17.393Z,47.57
2019-01-21T05:07:01.169Z,47.33
2019-01-21T05:09:38.902Z,48.92
2019-01-21T05:12:16.561Z,47.03
2019-01-21T05:14:51.597Z,45.52
2019-01-21T05:17:34.840Z,47.35
2019-01-21T05:20:15.441Z,46.80
2019-01-21T05:22:47.095Z,44.73
2019-01-21T05:25:30.058Z,46.67
2019-01-21T05:28:25.999Z,44.90
2019-01-21T05:31:09.463Z,44.47
2019-01-21T05:34:04.052Z,45.12
2019-01-21T05:36:41.531Z,44.80
2019-01-21T05:39:28.210Z,42.00
2019-01-21T05:42:08.874Z,43.27
2019-01-21T05:44:43.544Z,43.37
2019-01-21T05:47:33.321Z,43.35
2019-01-21T05:50:21.765Z,43.60
2019-01-21T05:53:07.965Z,43.70
2019-01-21T05:55:51.650Z,44.53
2019-01-21T05:58:35.369Z,43.23
2019-01-21T06:01:07.172Z,44.58
2019-01-21T06:03:41.293Z,44.60
2019-01-21T06:06:18.856Z,44.37
2019-01-21T06:09:24.097Z,45.30
2019-01-21T06:12:10.557Z,44.10
2019-01-21T06:15:03.285Z,42.40
2019-01-21T06:17:40.566Z,42.62
2019-01-21T06:20:18.001Z,41.98
2019-01-21T06:22:58.808Z,41.77
2019-01-21T06:25:42.422Z,43.43
2019-01-21T06:28:36.711Z,43.80
2019-01-21T06:31:35.555Z,42.75
2019-01-21T06:34:25.399Z,41.15
2019-01-21T06:37:11.532Z,43.20
2019-01-21T06:40:16.681Z,42.53
2019-01-21T06:42:59.858Z,42.23
2019-01-21T06:45:40.459Z,43.73
2019-01-21T06:48:30.062Z,42.60
2019-01-21T06:51:19.854Z,42.80
2019-01-21T06:53:57.638Z,41.60
2019-01-21T06:56:32.026Z,41.10
2019-01-21T06:59:08.803Z,42.15
2019-01-21T07:01:55.307Z,41.93
2019-01-21T07:04:32.948Z,39.92
2019-01-21T07:07:25.991Z,39.83
2019-01-21T07:10:03.441Z,38.90
2019-01-21T07:12:43.816Z,40.10
2019-01-21T07:15:18.241Z,38.80
2019-01-21T07:18:11.072Z,40.53
2019-01-21T07:20:54.495Z,39.50
2019-01-21T07:23:47.687Z,39.58
2019-01-21T07:26:34.191Z,40.15
2019-01-21T07:29:14.521Z,39.20
2019-01-21T07:31:55.025Z,39.83
2019-01-21T07:34:41.602Z,37.37
2019-01-21T07:37:18.930Z,36.83
2019-01-21T07:39:56.146Z,37.83
2019-01-21T07:42:45.541Z,37.90
2019-01-21T07:45:28.905Z,38.17
2019-01-21T07:48:14.977Z,37.98
2019-01-21T07:51:09.290Z,39.57
2019-01-21T07:54:01.748Z,38.63
2019-01-21T07:56:45.030Z,37.80
2019-01-21T07:59:19.538Z,38.30
2019-01-21T08:02:06.058Z,37.65
2019-01-21T08:04:46.310Z,38.40
2019-01-21T08:07:30.179Z,37.13
2019-01-21T08:10:21.140Z,38.65
2019-01-21T08:12:55.692Z,37.10
2019-01-21T08:15:30.245Z,37.55
2019-01-21T08:18:22.957Z,38.88
2019-01-21T08:21:14.446Z,38.17
2019-01-21T08:24:01.027Z,37.15
2019-01-21T08:26:32.672Z,37.77
2019-01-21T08:29:07.907Z,37.47
2019-01-21T08:31:45.101Z,38.40
2019-01-21T08:34:33.105Z,37.67
2019-01-21T08:37:07.633Z,36.75
2019-01-21T08:39:44.917Z,37.28
2019-01-21T08:42:23.166Z,36.20
2019-01-21T08:44:54.767Z,37.38
2019-01-21T08:47:29.524Z,36.70
2019-01-21T08:50:09.802Z,37.60
2019-01-21T08:52:44.170Z,36.10
2019-01-21T08:55:39.629Z,36.23
2019-01-21T08:58:33.812Z,35.23
2019-01-21T09:01:14.186Z,34.40
2019-01-21T09:03:52.143Z,35.60
2019-01-21T09:06:38.888Z,35.70
2019-01-21T09:09:10.494Z,36.93
2019-01-21T09:11:50.692Z,34.43
2019-01-21T09:14:24.917Z,36.17
2019-01-21T09:16:59.213Z,35.33
2019-01-21T09:19:37.259Z,36.20
2019-01-21T09:22:23.699Z,35.97
2019-01-21T09:24:55.352Z,35.13
2019-01-21T09:27:29.555Z,36.37
2019-01-21T09:30:17.677Z,35.92
2019-01-21T09:33:11.965Z,36.05
2019-01-21T09:35:58.466Z,35.30
2019-01-21T09:38:45.309Z,35.53
2019-01-21T09:41:36.518Z,34.60
2019-01-21T09:44:10.678Z,35.70
2019-01-21T09:46:43.949Z,34.35
2019-01-21T09:49:11.373Z,35.40
2019-01-21T09:51:42.143Z,36.00
2019-01-21T09:54:11.643Z,34.50
2019-01-21T09:56:41.372Z,36.20
2019-01-21T09:59:10.185Z,35.48
2019-01-21T10:01:38.906Z,34.60
2019-01-21T10:04:08.214Z,33.07
2019-01-21T10:06:42.077Z,33.30
2019-01-21T10:09:22.323Z,32.73
2019-01-21T10:12:28.701Z,33.30
2019-01-21T10:15:21.426Z,32.08
2019-01-21T10:18:01.586Z,32.42
2019-01-21T10:20:48.231Z,32.20
2019-01-21T10:23:28.431Z,31.77
2019-01-21T10:26:15.086Z,32.58
2019-01-21T10:28:46.768Z,31.97
2019-01-21T10:31:33.322Z,31.02
2019-01-21T10:34:08.176Z,33.03
2019-01-21T10:36:54.353Z,32.13
2019-01-21T10:39:26.014Z,32.57
2019-01-21T10:42:02.834Z,33.10
2019-01-21T10:45:01.621Z,32.40
2019-01-21T10:47:33.257Z,31.42
2019-01-21T10:50:16.592Z,31.77
2019-01-21T10:52:48.238Z,31.85
2019-01-21T10:55:31.826Z,33.83
2019-01-21T10:58:03.466Z,32.50
2019-01-21T11:00:47.175Z,34.20
2019-01-21T11:03:24.896Z,32.23
2019-01-21T11:06:02.473Z,33.93
2019-01-21T11:08:46.062Z,33.85
2019-01-21T11:11:29.639Z,33.30
2019-01-21T11:14:17.814Z,32.53
2019-01-21T11:16:58.510Z,34.07
2019-01-21T11:19:46.295Z,33.20
2019-01-21T11:22:18.411Z,32.93
2019-01-21T11:25:19.015Z,33.60
2019-01-21T11:27:56.606Z,33.57
2019-01-21T11:30:36.964Z,33.83
2019-01-21T11:33:39.082Z,32.53
2019-01-21T11:36:25.197Z,33.28
2019-01-21T11:39:02.777Z,32.07
2019-01-21T11:41:46.427Z,33.65
2019-01-21T11:44:36.374Z,32.33
2019-01-21T11:47:25.881Z,32.15
2019-01-21T11:50:15.434Z,32.57
2019-01-21T11:52:56.195Z,32.60
2019-01-21T11:55:36.447Z,33.10
2019-01-21T11:58:29.071Z,38.55
2019-01-21T12:01:06.500Z,35.00
2019-01-21T12:04:00.469Z,33.48
2019-01-21T12:06:35.057Z,33.98
2019-01-21T12:09:09.246Z,33.75
2019-01-21T12:11:49.702Z,33.03
2019-01-21T12:14:36.534Z,33.73
2019-01-21T12:17:24.378Z,34.20
2019-01-21T12:20:16.874Z,33.45
2019-01-21T12:23:20.030Z,35.73
2019-01-21T12:26:06.284Z,34.45
2019-01-21T12:28:57.550Z,33.83
2019-01-21T12:31:41.283Z,33.35
2019-01-21T12:34:29.904Z,33.58
2019-01-21T12:37:01.532Z,33.67
2019-01-21T12:39:51.203Z,36.20
2019-01-21T12:42:25.801Z,34.37
2019-01-21T12:45:22.855Z,31.97
2019-01-21T12:48:01.216Z,34.66
2019-01-21T12:50:41.080Z,33.40
2019-01-21T12:53:15.577Z,35.15
2019-01-21T12:56:11.240Z,34.07
2019-01-21T12:58:54.605Z,34.10
2019-01-21T13:01:26.196Z,34.20
2019-01-21T13:04:06.395Z,33.10
2019-01-21T13:06:46.578Z,34.40
2019-01-21T13:09:23.789Z,33.60
2019-01-21T13:12:19.606Z,33.10
2019-01-21T13:14:51.277Z,34.85
2019-01-21T13:17:23.519Z,34.65
2019-01-21T13:19:55.087Z,34.53
2019-01-21T13:22:44.041Z,32.88
2019-01-21T13:25:45.947Z,33.90
2019-01-21T13:28:37.436Z,32.90
2019-01-21T13:31:31.992Z,32.70
2019-01-21T13:34:15.807Z,32.42
2019-01-21T13:36:56.277Z,31.60
2019-01-21T13:39:36.729Z,33.80
2019-01-21T13:42:08.379Z,33.23
2019-01-21T13:44:48.880Z,33.88
2019-01-21T13:47:38.260Z,32.10
2019-01-21T13:50:12.593Z,33.17
2019-01-21T13:53:01.609Z,33.60
2019-01-21T13:55:41.677Z,33.45
2019-01-21T13:58:31.069Z,34.60
2019-01-21T14:01:11.465Z,32.90
2019-01-21T14:04:10.141Z,32.60
2019-01-21T14:07:13.329Z,33.03
2019-01-21T14:10:10.738Z,32.30
2019-01-21T14:12:57.236Z,34.40
2019-01-21T14:15:46.770Z,34.53
2019-01-21T14:18:27.057Z,34.40
2019-01-21T14:21:01.755Z,33.28
2019-01-21T14:23:36.320Z,33.20
2019-01-21T14:26:27.630Z,32.10
2019-01-21T14:29:01.861Z,33.63
2019-01-21T14:31:45.434Z,34.33
2019-01-21T14:34:26.388Z,34.78
2019-01-21T14:37:26.426Z,32.93
2019-01-21T14:40:03.351Z,32.55
2019-01-21T14:42:44.269Z,32.70
2019-01-21T14:45:18.413Z,33.48
2019-01-21T14:48:02.092Z,33.83
2019-01-21T14:50:42.708Z,33.83
2019-01-21T14:53:23.486Z,34.40
2019-01-21T14:56:00.904Z,33.75
2019-01-21T14:58:41.261Z,34.10
2019-01-21T15:01:18.726Z,33.93
2019-01-21T15:03:59.362Z,33.80
2019-01-21T15:06:47.735Z,33.98
2019-01-21T15:09:25.097Z,37.90
2019-01-21T15:12:15.114Z,35.80
2019-01-21T15:14:58.552Z,34.43
2019-01-21T15:17:51.552Z,33.67
2019-01-21T15:20:24.371Z,34.43
2019-01-21T15:23:01.732Z,33.60
2019-01-21T15:25:52.656Z,36.20
2019-01-21T15:28:39.548Z,38.33
2019-01-21T15:31:25.850Z,35.20
2019-01-21T15:34:09.077Z,36.30
2019-01-21T15:37:10.670Z,35.45
2019-01-21T15:39:57.375Z,35.90
2019-01-21T15:42:29.034Z,36.60
2019-01-21T15:45:09.482Z,35.80
2019-01-21T15:47:41.177Z,36.20
2019-01-21T15:50:12.770Z,36.27
2019-01-21T15:52:50.153Z,35.28
2019-01-21T15:55:27.388Z,36.40
2019-01-21T15:58:01.674Z,36.30
2019-01-21T16:00:54.266Z,36.40
2019-01-21T16:03:41.104Z,35.27
2019-01-21T16:06:29.763Z,37.10
2019-01-21T16:09:13.382Z,39.03
2019-01-21T16:12:18.260Z,39.67
2019-01-21T16:14:49.940Z,37.90
2019-01-21T16:17:33.945Z,38.07
2019-01-21T16:20:03.946Z,39.60
2019-01-21T16:23:04.385Z,39.27
2019-01-21T16:25:37.612Z,38.48
2019-01-21T16:28:31.733Z,38.43
2019-01-21T16:31:12.284Z,52.05
2019-01-21T16:34:00.246Z,38.35
2019-01-21T16:36:51.182Z,37.23
2019-01-21T16:39:43.765Z,34.97
2019-01-21T16:42:13.935Z,37.23
2019-01-21T16:44:44.289Z,43.03
2019-01-21T16:47:12.826Z,40.73
2019-01-21T16:49:41.473Z,38.13
2019-01-21T16:52:10.013Z,41.30
2019-01-21T16:54:38.579Z,42.77
2019-01-21T16:57:07.197Z,37.70
2019-01-21T16:59:35.677Z,37.60
2019-01-21T17:02:04.393Z,59.27
2019-01-21T17:04:32.991Z,38.20
2019-01-21T17:07:01.594Z,36.90
2019-01-21T17:09:30.107Z,37.20
2019-01-21T17:11:58.658Z,38.50
2019-01-21T17:14:27.230Z,38.53
2019-01-21T17:16:55.709Z,37.35
2019-01-21T17:19:24.201Z,36.65
2019-01-21T17:21:53.111Z,37.80
2019-01-21T17:24:21.752Z,37.10
2019-01-21T17:26:50.264Z,43.83
2019-01-21T17:29:18.763Z,38.07
2019-01-21T17:31:47.364Z,37.83
2019-01-21T17:34:15.873Z,38.70
2019-01-21T17:36:44.365Z,37.23
2019-01-21T17:39:12.906Z,36.63
2019-01-21T17:41:41.473Z,37.20
2019-01-21T17:44:09.956Z,39.13
2019-01-21T17:46:38.453Z,36.48
2019-01-21T17:49:06.933Z,36.83
2019-01-21T17:51:35.507Z,37.70
2019-01-21T17:54:04.886Z,37.23
2019-01-21T17:56:33.468Z,37.48
2019-01-21T17:59:02.086Z,38.07
2019-01-21T18:01:30.650Z,36.70
2019-01-21T18:03:59.137Z,37.25
2019-01-21T18:06:27.709Z,36.07
2019-01-21T18:08:56.268Z,36.17
2019-01-21T18:11:24.861Z,37.30
2019-01-21T18:13:53.358Z,37.93
2019-01-21T18:16:21.922Z,40.30
2019-01-21T18:18:50.472Z,39.53
2019-01-21T18:21:18.982Z,38.13
2019-01-21T18:23:47.541Z,37.57
2019-01-21T18:26:16.108Z,39.80
2019-01-21T18:28:44.926Z,36.60
2019-01-21T18:31:13.554Z,37.60
2019-01-21T18:33:42.247Z,38.08
2019-01-21T18:36:10.813Z,39.00
2019-01-21T18:38:39.445Z,47.85
2019-01-21T18:41:08.107Z,41.80
2019-01-21T18:43:36.713Z,44.48
2019-01-21T18:46:05.282Z,42.13
2019-01-21T18:48:33.883Z,43.23
2019-01-21T18:51:02.455Z,39.70
2019-01-21T18:53:31.009Z,39.00
2019-01-21T18:55:59.581Z,40.13
2019-01-21T18:58:28.070Z,39.35
2019-01-21T19:00:56.568Z,38.30
2019-01-21T19:03:25.118Z,37.45
2019-01-21T19:05:53.692Z,36.47
2019-01-21T19:08:22.313Z,36.53
2019-01-21T19:10:50.812Z,37.65
2019-01-21T19:13:19.285Z,39.53
2019-01-21T19:15:47.857Z,38.07
2019-01-21T19:18:16.347Z,38.17
2019-01-21T19:20:44.920Z,40.98
2019-01-21T19:23:13.397Z,37.58
2019-01-21T19:25:41.975Z,38.93
2019-01-21T19:28:10.517Z,39.67
2019-01-21T19:30:39.025Z,38.25
2019-01-21T19:33:07.595Z,37.47
2019-01-21T19:35:36.157Z,38.35
2019-01-21T19:38:04.695Z,40.03
2019-01-21T19:40:33.261Z,38.50
2019-01-21T19:43:01.880Z,42.70
2019-01-21T19:45:30.510Z,42.80
2019-01-21T19:47:59.103Z,41.70
2019-01-21T19:50:27.791Z,39.75
2019-01-21T19:52:56.493Z,42.48
2019-01-21T19:55:28.110Z,42.10
2019-01-21T19:57:56.692Z,41.10
2019-01-21T20:00:25.794Z,40.25
2019-01-21T20:02:54.513Z,40.92
2019-01-21T20:05:23.126Z,40.73
2019-01-21T20:07:51.730Z,40.70
2019-01-21T20:10:22.118Z,40.45
2019-01-21T20:12:50.853Z,39.23
2019-01-21T20:15:19.549Z,39.90
2019-01-21T20:17:48.186Z,38.92
2019-01-21T20:20:25.226Z,39.48
2019-01-21T20:22:57.581Z,40.67
2019-01-21T20:25:24.583Z,39.03
2019-01-21T20:27:53.151Z,39.50
2019-01-21T20:30:23.485Z,38.58
2019-01-21T20:32:52.021Z,41.13
2019-01-21T20:35:21.505Z,39.87
2019-01-21T20:37:50.427Z,40.95
2019-01-21T20:40:25.119Z,40.87
2019-01-21T20:42:54.310Z,40.17
2019-01-21T20:45:23.199Z,40.45
2019-01-21T20:47:51.847Z,40.25
2019-01-21T20:50:22.925Z,40.15
2019-01-21T20:52:51.416Z,42.80
2019-01-21T20:55:20.553Z,44.73
2019-01-21T20:57:49.196Z,45.37
2019-01-21T21:00:21.252Z,44.00
2019-01-21T21:02:49.834Z,44.65
2019-01-21T21:05:18.452Z,42.50
2019-01-21T21:07:46.960Z,41.80
2019-01-21T21:10:15.573Z,41.73
2019-01-21T21:12:44.238Z,41.98
2019-01-21T21:15:21.308Z,39.88
2019-01-21T21:17:50.124Z,41.35
2019-01-21T21:20:19.513Z,41.33
2019-01-21T21:22:48.085Z,41.42
2019-01-21T21:25:18.678Z,40.38
2019-01-21T21:27:47.249Z,41.70
2019-01-21T21:30:21.394Z,41.58
2019-01-21T21:32:50.438Z,40.70
2019-01-21T21:35:19.001Z,43.80
2019-01-21T21:37:47.578Z,50.10
2019-01-21T21:40:18.638Z,42.93
2019-01-21T21:42:47.281Z,41.28
2019-01-21T21:45:17.664Z,59.50
2019-01-21T21:47:46.381Z,47.65
2019-01-21T21:50:20.740Z,50.23
2019-01-21T21:52:49.397Z,50.90
2019-01-21T21:55:18.024Z,41.73
2019-01-21T21:57:46.571Z,40.92
2019-01-21T22:00:20.702Z,40.90
2019-01-21T22:02:49.322Z,40.60
2019-01-21T22:05:19.338Z,41.13
2019-01-21T22:07:47.874Z,41.23
2019-01-21T22:10:19.867Z,41.20
2019-01-21T22:12:49.233Z,40.90
2019-01-21T22:15:19.842Z,42.65
2019-01-21T22:17:48.448Z,41.08
2019-01-21T22:20:21.729Z,42.33
2019-01-21T22:22:50.436Z,42.40
2019-01-21T22:25:19.458Z,43.08
2019-01-21T22:27:48.342Z,44.13
2019-01-21T22:30:22.134Z,42.40
2019-01-21T22:32:50.753Z,44.30
2019-01-21T22:35:19.386Z,44.23
2019-01-21T22:37:48.238Z,47.58
2019-01-21T22:40:19.037Z,44.23
2019-01-21T22:42:47.644Z,44.63
2019-01-21T22:45:17.468Z,48.42
2019-01-21T22:47:46.011Z,51.18
2019-01-21T22:50:16.650Z,50.10
2019-01-21T22:52:45.193Z,51.73
2019-01-21T22:55:15.410Z,50.85
2019-01-21T22:57:43.962Z,50.80
2019-01-21T23:00:29.304Z,50.17
2019-01-21T23:02:57.914Z,47.20
2019-01-21T23:05:26.480Z,49.37
2019-01-21T23:07:55.024Z,50.48
2019-01-21T23:10:23.593Z,50.98
2019-01-21T23:12:52.345Z,51.65
2019-01-21T23:15:20.934Z,50.00
2019-01-21T23:17:49.512Z,52.75
2019-01-21T23:20:18.085Z,49.35
2019-01-21T23:22:49.320Z,49.70
2019-01-21T23:25:16.938Z,49.45
2019-01-21T23:27:45.503Z,49.80
2019-01-21T23:30:19.424Z,49.63
2019-01-21T23:32:48.062Z,49.80
2019-01-21T23:35:18.129Z,49.48
2019-01-21T23:37:46.869Z,46.75
2019-01-21T23:40:15.618Z,51.40
2019-01-21T23:42:44.177Z,52.67
2019-01-21T23:45:13.392Z,54.70
2019-01-21T23:47:41.957Z,52.48
2019-01-21T23:50:15.633Z,52.80
2019-01-21T23:52:44.194Z,55.58
2019-01-21T23:55:13.895Z,55.87
2019-01-21T23:57:42.456Z,55.40
